Time;durP1;ratioP1;P1;durP2;ratioP2;P2;SDS_P1;SDS_P2;PMS_P1;PMS_P2;Temp;Humidity;BMP_temperature;BMP_pressure;BME280_temperature;BME280_humidity;BME280_pressure;Samples;Min_cycle;Max_cycle;Signal;HPM_P1;HPM_P2
2022/08/14 00:01:05;;;;;;;8.85;5.65;;;;;;;;;;4364332;32;20087;-67
2022/08/14 00:03:31;;;;;;;8.60;5.37;;;;;;;;;;4351544;32;20106;-67
2022/08/14 00:06:00;;;;;;;7.82;5.60;;;;;;;;;;4351289;32;20157;-67
2022/08/14 00:08:28;;;;;;;11.25;5.82;;;;;;;;;;4363499;32;20099;-67
2022/08/14 00:10:54;;;;;;;7.82;5.43;;;;;;;;;;4363413;32;20090;-68
2022/08/14 00:13:23;;;;;;;8.38;5.37;;;;;;;;;;4351946;32;20089;-67
2022/08/14 00:15:51;;;;;;;7.60;5.40;;;;;;;;;;4363841;32;20063;-67
2022/08/14 00:18:21;;;;;;;7.78;5.57;;;;;;;;;;4364177;32;20066;-68
2022/08/14 00:20:48;;;;;;;11.73;5.78;;;;;;;;;;4363672;32;20094;-67
2022/08/14 00:23:16;;;;;;;11.45;5.40;;;;;;;;;;4363450;32;20085;-67
2022/08/14 00:25:46;;;;;;;7.55;5.28;;;;;;;;;;4363605;32;20134;-67
2022/08/14 00:28:14;;;;;;;10.15;5.05;;;;;;;;;;4363232;32;20086;-68
2022/08/14 00:30:41;;;;;;;8.50;4.65;;;;;;;;;;4363251;32;20165;-68
2022/08/14 00:33:08;;;;;;;8.50;5.30;;;;;;;;;;4351488;32;20159;-67
2022/08/14 00:35:35;;;;;;;9.85;5.30;;;;;;;;;;4377045;32;20080;-67
2022/08/14 00:38:01;;;;;;;8.18;5.60;;;;;;;;;;4377111;32;20088;-69
2022/08/14 00:40:28;;;;;;;7.93;5.07;;;;;;;;;;4377371;32;20203;-68
2022/08/14 00:42:55;;;;;;;6.50;4.43;;;;;;;;;;4377089;32;20078;-67
2022/08/14 00:45:22;;;;;;;8.02;5.05;;;;;;;;;;4350735;32;20069;-67
2022/08/14 00:47:50;;;;;;;10.27;5.05;;;;;;;;;;4363045;32;20144;-67
2022/08/14 00:50:19;;;;;;;7.25;4.87;;;;;;;;;;4349856;32;20116;-67
2022/08/14 00:52:48;;;;;;;6.53;4.70;;;;;;;;;;4362726;32;20098;-68
2022/08/14 00:55:15;;;;;;;9.13;5.65;;;;;;;;;;4376920;32;20093;-67
2022/08/14 00:57:42;;;;;;;10.95;5.28;;;;;;;;;;4362949;32;20169;-68
2022/08/14 01:00:13;;;;;;;7.60;5.18;;;;;;;;;;4363133;32;20154;-66
2022/08/14 01:02:44;;;;;;;8.50;5.40;;;;;;;;;;4363161;32;20075;-66
2022/08/14 01:05:22;;;;;;;8.55;5.45;;;;;;;;;;4362902;32;20161;-68
2022/08/14 01:07:53;;;;;;;8.65;5.60;;;;;;;;;;4377497;32;20090;-67
2022/08/14 01:10:20;;;;;;;9.88;5.32;;;;;;;;;;4362974;32;20102;-66
2022/08/14 01:12:47;;;;;;;9.63;5.07;;;;;;;;;;4363480;32;20149;-66
2022/08/14 01:15:16;;;;;;;8.65;5.53;;;;;;;;;;4376487;32;20097;-67
2022/08/14 01:23:32;;;;;;;8.32;5.53;;;;;;;;;;4309017;33;20082;-67
2022/08/14 01:25:59;;;;;;;8.40;5.37;;;;;;;;;;4353561;32;20449;-67
2022/08/14 01:28:25;;;;;;;8.55;5.70;;;;;;;;;;4363698;32;20178;-67
2022/08/14 01:30:56;;;;;;;7.37;5.72;;;;;;;;;;4353200;32;20089;-67
2022/08/14 01:33:30;;;;;;;8.07;5.80;;;;;;;;;;4359829;32;20085;-71
2022/08/14 01:35:59;;;;;;;10.27;5.97;;;;;;;;;;4363691;32;20081;-67
2022/08/14 01:38:33;;;;;;;8.57;6.28;;;;;;;;;;4350416;32;20141;-69
2022/08/14 01:41:01;;;;;;;11.23;5.90;;;;;;;;;;4351321;32;20070;-67
2022/08/14 01:43:29;;;;;;;8.93;5.82;;;;;;;;;;4349758;32;20511;-67
2022/08/14 01:45:59;;;;;;;9.27;6.35;;;;;;;;;;4376347;32;20167;-68
2022/08/14 01:48:31;;;;;;;9.40;5.80;;;;;;;;;;4362759;32;20074;-66
2022/08/14 01:51:02;;;;;;;11.32;6.30;;;;;;;;;;4362840;32;20094;-68
2022/08/14 01:53:30;;;;;;;12.13;6.30;;;;;;;;;;4351165;32;20170;-67
2022/08/14 01:55:59;;;;;;;9.52;6.70;;;;;;;;;;4363016;32;20070;-66
2022/08/14 01:58:28;;;;;;;10.23;6.68;;;;;;;;;;4362824;32;20164;-67
2022/08/14 02:00:55;;;;;;;10.88;7.10;;;;;;;;;;4376560;32;20080;-67
2022/08/14 02:03:24;;;;;;;7.75;5.50;;;;;;;;;;4349847;32;20097;-68
2022/08/14 02:05:51;;;;;;;10.15;6.12;;;;;;;;;;4362724;32;20489;-67
2022/08/14 02:08:18;;;;;;;9.57;5.80;;;;;;;;;;4350037;32;20078;-66
2022/08/14 02:11:15;;;;;;;11.63;6.40;;;;;;;;;;4362337;32;20093;-67
2022/08/14 02:13:32;;;;;;;10.23;6.40;;;;;;;;;;4351900;32;20085;-68
2022/08/14 02:15:59;;;;;;;10.20;6.80;;;;;;;;;;4350225;32;20086;-66
2022/08/14 02:18:27;;;;;;;9.95;6.30;;;;;;;;;;4362582;32;20105;-67
2022/08/14 02:20:54;;;;;;;12.35;6.60;;;;;;;;;;4362538;32;20071;-66
2022/08/14 02:23:22;;;;;;;11.18;7.00;;;;;;;;;;4362607;32;20166;-68
2022/08/14 02:25:49;;;;;;;12.27;5.82;;;;;;;;;;4362534;32;20133;-68
2022/08/14 02:28:16;;;;;;;10.20;6.47;;;;;;;;;;4362685;32;20445;-66
2022/08/14 02:30:43;;;;;;;8.98;6.43;;;;;;;;;;4349977;32;20511;-68
2022/08/14 02:33:10;;;;;;;8.95;6.20;;;;;;;;;;4376128;32;20504;-67
2022/08/14 02:35:41;;;;;;;10.57;6.53;;;;;;;;;;4362459;32;20083;-68
2022/08/14 02:38:08;;;;;;;9.25;6.05;;;;;;;;;;4350420;32;20074;-67
2022/08/14 02:40:36;;;;;;;9.70;6.75;;;;;;;;;;4362268;32;20146;-67
2022/08/14 02:43:05;;;;;;;11.93;6.90;;;;;;;;;;4349834;32;20614;-67
2022/08/14 02:45:33;;;;;;;10.35;6.47;;;;;;;;;;4362292;32;20075;-67
2022/08/14 02:48:02;;;;;;;14.35;6.95;;;;;;;;;;4362681;32;20479;-67
2022/08/14 02:50:28;;;;;;;9.20;6.70;;;;;;;;;;4349436;32;20074;-67
2022/08/14 02:52:55;;;;;;;13.02;7.18;;;;;;;;;;4350259;32;20488;-66
2022/08/14 02:55:22;;;;;;;11.60;7.32;;;;;;;;;;4376081;32;20078;-68
2022/08/14 02:57:50;;;;;;;8.73;6.68;;;;;;;;;;4361889;32;20120;-67
2022/08/14 03:00:17;;;;;;;9.68;7.15;;;;;;;;;;4361588;32;20482;-67
2022/08/14 03:02:44;;;;;;;10.60;6.68;;;;;;;;;;4362523;32;20074;-68
2022/08/14 03:05:11;;;;;;;9.38;6.40;;;;;;;;;;4375531;32;20069;-67
2022/08/14 03:07:39;;;;;;;10.10;6.93;;;;;;;;;;4375832;32;20507;-68
2022/08/14 03:10:06;;;;;;;12.43;6.97;;;;;;;;;;4375464;32;20089;-68
2022/08/14 03:12:33;;;;;;;8.77;6.32;;;;;;;;;;4375482;32;20109;-67
2022/08/14 03:15:08;;;;;;;8.52;6.50;;;;;;;;;;4363675;32;20093;-67
2022/08/14 03:17:35;;;;;;;9.65;6.65;;;;;;;;;;4352134;32;20066;-67
2022/08/14 03:20:05;;;;;;;8.63;5.90;;;;;;;;;;4364364;32;20149;-66
2022/08/14 03:22:32;;;;;;;9.18;5.62;;;;;;;;;;4352081;32;20113;-68
2022/08/14 03:25:01;;;;;;;13.82;5.75;;;;;;;;;;4378284;32;20070;-68
2022/08/14 03:27:30;;;;;;;9.20;5.28;;;;;;;;;;4364283;32;20070;-68
2022/08/14 03:29:57;;;;;;;11.35;6.35;;;;;;;;;;4378369;32;20471;-68
2022/08/14 03:32:24;;;;;;;8.95;5.80;;;;;;;;;;4364340;32;20077;-68
2022/08/14 03:34:50;;;;;;;10.10;6.25;;;;;;;;;;4364293;32;20168;-68
2022/08/14 03:37:17;;;;;;;11.95;5.25;;;;;;;;;;4364101;32;20078;-68
2022/08/14 03:39:44;;;;;;;11.60;5.90;;;;;;;;;;4378822;32;20074;-68
2022/08/14 03:42:12;;;;;;;6.85;5.18;;;;;;;;;;4364425;32;20090;-66
2022/08/14 03:44:42;;;;;;;8.40;5.45;;;;;;;;;;4377821;32;20081;-68
2022/08/14 03:47:11;;;;;;;8.23;5.25;;;;;;;;;;4364133;32;20521;-67
2022/08/14 03:49:38;;;;;;;7.60;5.20;;;;;;;;;;4377871;32;20077;-67
2022/08/14 03:52:05;;;;;;;11.75;5.62;;;;;;;;;;4339164;32;20449;-67
2022/08/14 03:54:34;;;;;;;7.68;4.93;;;;;;;;;;4351605;32;20089;-67
2022/08/14 03:57:01;;;;;;;8.75;5.25;;;;;;;;;;4351829;32;20460;-68
2022/08/14 03:59:28;;;;;;;7.22;5.00;;;;;;;;;;4339240;32;20082;-67
2022/08/14 04:01:54;;;;;;;10.00;5.18;;;;;;;;;;4364482;32;20088;-67
2022/08/14 04:04:21;;;;;;;7.10;5.37;;;;;;;;;;4381616;32;20143;-67
2022/08/14 04:06:50;;;;;;;6.68;4.95;;;;;;;;;;4372636;32;20058;-66
2022/08/14 04:09:17;;;;;;;7.45;6.15;;;;;;;;;;4363706;32;20148;-68
2022/08/14 04:11:44;;;;;;;9.93;5.82;;;;;;;;;;4377549;32;20538;-68
2022/08/14 04:14:12;;;;;;;10.00;6.18;;;;;;;;;;4363699;32;20137;-68
2022/08/14 04:16:46;;;;;;;12.13;7.57;;;;;;;;;;4351992;32;20090;-69
2022/08/14 04:19:14;;;;;;;7.55;5.75;;;;;;;;;;4377795;32;20073;-67
2022/08/14 04:21:41;;;;;;;10.40;5.37;;;;;;;;;;4364734;32;20182;-67
2022/08/14 04:24:08;;;;;;;8.60;5.25;;;;;;;;;;4370320;32;20605;-69
2022/08/14 04:26:34;;;;;;;7.65;5.95;;;;;;;;;;4364022;32;20090;-67
2022/08/14 04:29:02;;;;;;;11.45;5.80;;;;;;;;;;4363965;32;20074;-67
2022/08/14 04:31:28;;;;;;;8.60;6.68;;;;;;;;;;4363300;32;20082;-67
2022/08/14 04:33:55;;;;;;;10.23;6.43;;;;;;;;;;4363253;32;20528;-66
2022/08/14 04:36:22;;;;;;;8.63;5.90;;;;;;;;;;4363573;32;20154;-67
2022/08/14 04:44:20;;;;;;;8.73;5.28;;;;;;;;;;4377361;32;20500;-68
2022/08/14 04:49:32;;;;;;;7.30;5.33;;;;;;;;;;4377077;32;20508;-67
2022/08/14 04:52:02;;;;;;;8.02;5.50;;;;;;;;;;4351355;32;20165;-67
2022/08/14 04:54:29;;;;;;;9.20;5.85;;;;;;;;;;4363279;32;20074;-68
2022/08/14 04:56:56;;;;;;;9.10;5.37;;;;;;;;;;4363346;32;20095;-66
2022/08/14 04:59:24;;;;;;;8.23;5.80;;;;;;;;;;4339046;32;20094;-67
2022/08/14 05:01:51;;;;;;;7.37;5.97;;;;;;;;;;4350780;32;20097;-68
2022/08/14 05:04:19;;;;;;;6.55;5.70;;;;;;;;;;4363226;32;20102;-67
2022/08/14 05:06:46;;;;;;;9.68;5.60;;;;;;;;;;4350485;32;20094;-68
2022/08/14 05:09:13;;;;;;;6.57;4.95;;;;;;;;;;4363071;32;20104;-67
2022/08/14 05:11:40;;;;;;;7.87;5.25;;;;;;;;;;4377358;32;20080;-68
2022/08/14 05:14:06;;;;;;;6.60;5.70;;;;;;;;;;4362985;32;20082;-68
2022/08/14 05:16:33;;;;;;;7.47;5.05;;;;;;;;;;4376892;32;20098;-69
2022/08/14 05:19:00;;;;;;;8.38;5.20;;;;;;;;;;4376796;32;20098;-68
2022/08/14 05:21:28;;;;;;;6.97;5.15;;;;;;;;;;4350524;32;20085;-68
2022/08/14 05:23:54;;;;;;;7.90;4.75;;;;;;;;;;4339107;32;20101;-67
2022/08/14 05:26:21;;;;;;;5.40;4.35;;;;;;;;;;4363222;32;20081;-67
2022/08/14 05:28:48;;;;;;;7.20;4.68;;;;;;;;;;4362970;32;20078;-67
2022/08/14 05:31:16;;;;;;;8.25;4.53;;;;;;;;;;4350316;32;20094;-67
2022/08/14 05:33:44;;;;;;;5.15;4.03;;;;;;;;;;4350643;32;20453;-68
2022/08/14 05:36:11;;;;;;;5.95;4.70;;;;;;;;;;4362966;32;20096;-68
2022/08/14 05:38:41;;;;;;;8.55;4.47;;;;;;;;;;4362831;32;20074;-68
2022/08/14 05:41:11;;;;;;;7.80;4.30;;;;;;;;;;4362889;32;20441;-67
2022/08/14 05:43:39;;;;;;;7.43;4.55;;;;;;;;;;4363076;32;20066;-68
2022/08/14 05:46:06;;;;;;;8.18;4.78;;;;;;;;;;4362909;32;20094;-66
2022/08/14 05:48:34;;;;;;;6.87;4.00;;;;;;;;;;4350029;32;20535;-67
2022/08/14 05:51:00;;;;;;;6.37;4.28;;;;;;;;;;4359944;32;20089;-67
2022/08/14 05:53:28;;;;;;;6.65;3.97;;;;;;;;;;4361190;32;20157;-67
2022/08/14 05:55:55;;;;;;;6.65;4.40;;;;;;;;;;4334996;32;20508;-66
2022/08/14 05:58:22;;;;;;;7.32;4.15;;;;;;;;;;4361318;32;20071;-67
2022/08/14 06:00:50;;;;;;;9.80;4.45;;;;;;;;;;4361413;32;20082;-69
2022/08/14 06:03:20;;;;;;;5.57;3.92;;;;;;;;;;4360428;32;20074;-66
2022/08/14 06:05:48;;;;;;;5.25;4.55;;;;;;;;;;4348434;32;20071;-68
2022/08/14 06:08:28;;;;;;;6.35;4.32;;;;;;;;;;4359675;32;20094;-68
2022/08/14 06:11:02;;;;;;;5.97;4.20;;;;;;;;;;4360023;32;20078;-67
2022/08/14 06:13:46;;;;;;;8.30;4.25;;;;;;;;;;4347533;32;20081;-67
2022/08/14 06:16:17;;;;;;;8.43;4.43;;;;;;;;;;4347660;32;20078;-68
2022/08/14 06:18:46;;;;;;;6.45;3.83;;;;;;;;;;4361190;32;20074;-67
2022/08/14 06:21:14;;;;;;;6.05;3.97;;;;;;;;;;4360520;32;20085;-67
2022/08/14 06:23:41;;;;;;;6.22;4.53;;;;;;;;;;4348181;32;20086;-67
2022/08/14 06:26:08;;;;;;;8.65;5.30;;;;;;;;;;4359810;32;20087;-67
2022/08/14 06:28:35;;;;;;;7.78;3.78;;;;;;;;;;4347957;32;20075;-66
2022/08/14 06:31:03;;;;;;;7.35;4.55;;;;;;;;;;4360355;32;20444;-66
2022/08/14 06:33:29;;;;;;;5.12;4.30;;;;;;;;;;4361561;32;20063;-66
2022/08/14 06:35:56;;;;;;;4.93;4.37;;;;;;;;;;4361109;32;20078;-66
2022/08/14 06:38:23;;;;;;;8.02;4.55;;;;;;;;;;4362014;32;20086;-66
2022/08/14 06:40:50;;;;;;;5.10;4.20;;;;;;;;;;4349382;32;20078;-67
2022/08/14 06:43:18;;;;;;;6.45;4.00;;;;;;;;;;4334826;32;20456;-68
2022/08/14 06:45:46;;;;;;;7.37;3.78;;;;;;;;;;4348090;32;20497;-66
2022/08/14 06:48:22;;;;;;;6.10;4.40;;;;;;;;;;4348759;32;20086;-66
2022/08/14 06:50:50;;;;;;;6.32;4.32;;;;;;;;;;4362714;32;20512;-69
2022/08/14 06:53:18;;;;;;;7.43;3.95;;;;;;;;;;4362530;32;20455;-67
2022/08/14 06:55:46;;;;;;;6.75;3.87;;;;;;;;;;4363822;32;20513;-67
2022/08/14 06:58:14;;;;;;;5.12;3.70;;;;;;;;;;4362285;32;20078;-68
2022/08/14 07:05:44;;;;;;;6.07;4.12;;;;;;;;;;4350283;32;20086;-66
2022/08/14 07:06:14;;;;;;;4.45;3.03;;;;;;;;;;4363094;32;20505;-67
2022/08/14 07:08:42;;;;;;;8.73;3.97;;;;;;;;;;4362528;32;20075;-66
2022/08/14 07:11:10;;;;;;;7.05;3.50;;;;;;;;;;4362729;32;20071;-67
2022/08/14 07:13:37;;;;;;;6.53;3.67;;;;;;;;;;4349741;32;20094;-67
2022/08/14 07:16:04;;;;;;;6.20;3.60;;;;;;;;;;4362139;32;20098;-67
2022/08/14 07:18:32;;;;;;;5.55;3.55;;;;;;;;;;4363498;32;20085;-68
2022/08/14 07:21:00;;;;;;;5.10;3.47;;;;;;;;;;4363503;32;20516;-66
2022/08/14 07:23:27;;;;;;;4.80;3.10;;;;;;;;;;4361931;32;20144;-67
2022/08/14 07:25:56;;;;;;;6.28;3.87;;;;;;;;;;4361936;32;20150;-67
2022/08/14 07:28:25;;;;;;;3.50;2.50;;;;;;;;;;4361861;32;20156;-69
2022/08/14 07:30:57;;;;;;;2.62;2.15;;;;;;;;;;4350036;32;20172;-68
2022/08/14 07:33:39;;;;;;;2.90;2.58;;;;;;;;;;4362081;32;20070;-68
2022/08/14 07:36:08;;;;;;;3.50;3.08;;;;;;;;;;4349634;32;20078;-68
2022/08/14 07:38:35;;;;;;;4.62;3.05;;;;;;;;;;4337255;32;20082;-68
2022/08/14 07:41:04;;;;;;;6.00;3.75;;;;;;;;;;4361531;32;20082;-66
2022/08/14 07:43:30;;;;;;;4.25;3.20;;;;;;;;;;4349908;32;20078;-68
2022/08/14 07:45:57;;;;;;;5.97;3.72;;;;;;;;;;4349377;32;20098;-67
2022/08/14 07:48:24;;;;;;;3.80;3.08;;;;;;;;;;4361725;32;20166;-68
2022/08/14 07:50:50;;;;;;;4.87;2.95;;;;;;;;;;4347684;32;20089;-67
2022/08/14 07:53:18;;;;;;;4.68;2.87;;;;;;;;;;4351647;32;20092;-68
2022/08/14 07:55:47;;;;;;;5.07;2.90;;;;;;;;;;4351707;32;20094;-68
2022/08/14 07:58:16;;;;;;;4.85;3.00;;;;;;;;;;4352564;32;20090;-66
2022/08/14 08:00:43;;;;;;;4.05;3.20;;;;;;;;;;4364242;32;20093;-68
2022/08/14 08:03:10;;;;;;;5.12;2.97;;;;;;;;;;4352103;32;20165;-67
2022/08/14 08:05:38;;;;;;;5.30;3.22;;;;;;;;;;4377570;32;20524;-67
2022/08/14 08:08:06;;;;;;;4.45;3.10;;;;;;;;;;4351577;32;20169;-67
2022/08/14 08:10:33;;;;;;;9.55;3.10;;;;;;;;;;4364173;32;20524;-67
2022/08/14 08:13:01;;;;;;;4.28;3.10;;;;;;;;;;4351293;32;20179;-68
2022/08/14 08:15:31;;;;;;;7.10;3.10;;;;;;;;;;4363849;32;20090;-67
2022/08/14 08:18:03;;;;;;;3.03;2.67;;;;;;;;;;4351970;32;20604;-68
2022/08/14 08:20:32;;;;;;;6.10;2.90;;;;;;;;;;4351919;32;20074;-68
2022/08/14 08:22:59;;;;;;;4.40;2.90;;;;;;;;;;4351304;32;20146;-68
2022/08/14 08:25:30;;;;;;;7.28;3.53;;;;;;;;;;4351423;32;20187;-67
2022/08/14 08:27:58;;;;;;;7.32;2.90;;;;;;;;;;4363612;32;20071;-67
2022/08/14 08:30:25;;;;;;;3.55;2.40;;;;;;;;;;4363695;32;20078;-68
2022/08/14 08:32:54;;;;;;;4.37;2.90;;;;;;;;;;4351589;32;20097;-66
2022/08/14 08:35:25;;;;;;;5.35;2.90;;;;;;;;;;4339020;32;20081;-68
2022/08/14 08:37:53;;;;;;;5.22;2.80;;;;;;;;;;4351287;32;20082;-67
2022/08/14 08:40:25;;;;;;;4.95;2.60;;;;;;;;;;4363814;32;20074;-68
2022/08/14 08:42:52;;;;;;;4.35;2.55;;;;;;;;;;4363141;32;20539;-68
2022/08/14 08:45:20;;;;;;;4.55;2.72;;;;;;;;;;4351005;32;20159;-68
2022/08/14 08:47:47;;;;;;;3.22;2.92;;;;;;;;;;4363479;32;20098;-68
2022/08/14 08:50:23;;;;;;;4.28;2.90;;;;;;;;;;4376791;32;20086;-68
2022/08/14 08:52:51;;;;;;;3.40;2.60;;;;;;;;;;4338588;32;20171;-69
2022/08/14 08:55:26;;;;;;;3.35;2.70;;;;;;;;;;4350803;32;20077;-67
2022/08/14 08:58:03;;;;;;;4.60;2.78;;;;;;;;;;4350752;32;20094;-67
2022/08/14 09:00:33;;;;;;;7.57;2.92;;;;;;;;;;4364014;32;20102;-68
2022/08/14 09:03:08;;;;;;;5.80;2.80;;;;;;;;;;4363957;32;20066;-71
2022/08/14 09:05:36;;;;;;;3.92;2.78;;;;;;;;;;4363335;32;20086;-68
2022/08/14 09:08:33;;;;;;;3.90;2.55;;;;;;;;;;4354844;32;20058;-67
2022/08/14 09:11:03;;;;;;;;;;;;;;;;;;4361480;32;20098;-68
2022/08/14 09:13:30;;;;;;;3.72;2.40;;;;;;;;;;4370958;32;19965;-68
2022/08/14 09:15:58;;;;;;;4.43;2.40;;;;;;;;;;4351739;32;20133;-67
2022/08/14 09:18:26;;;;;;;5.93;2.72;;;;;;;;;;4351374;32;20090;-68
2022/08/14 09:20:55;;;;;;;8.32;2.80;;;;;;;;;;4376764;32;20069;-69
2022/08/14 09:23:22;;;;;;;4.47;2.53;;;;;;;;;;4351165;32;20147;-68
2022/08/14 09:25:50;;;;;;;5.32;2.70;;;;;;;;;;4363291;32;20161;-68
2022/08/14 09:28:18;;;;;;;2.78;2.47;;;;;;;;;;4362919;32;20073;-68
2022/08/14 09:30:53;;;;;;;3.22;2.50;;;;;;;;;;4362829;32;20203;-68
2022/08/14 09:33:36;;;;;;;4.25;2.70;;;;;;;;;;4362707;32;20247;-68
2022/08/14 09:36:14;;;;;;;3.92;2.30;;;;;;;;;;4362732;32;20553;-68
2022/08/14 09:38:53;;;;;;;4.47;2.80;;;;;;;;;;4363432;32;20077;-67
2022/08/14 09:41:37;;;;;;;6.35;2.78;;;;;;;;;;4363099;32;20165;-68
2022/08/14 09:44:32;;;;;;;4.03;2.53;;;;;;;;;;4363175;32;20074;-68
2022/08/14 09:46:59;;;;;;;4.40;2.40;;;;;;;;;;4377140;32;20179;-66
2022/08/14 09:49:35;;;;;;;2.75;2.42;;;;;;;;;;4349849;32;20093;-67
2022/08/14 09:52:13;;;;;;;3.85;2.60;;;;;;;;;;4350132;32;20181;-68
2022/08/14 09:54:45;;;;;;;4.78;2.60;;;;;;;;;;4362558;32;20073;-67
2022/08/14 09:57:26;;;;;;;4.40;2.42;;;;;;;;;;4362376;32;20102;-68
2022/08/14 09:59:53;;;;;;;4.85;2.42;;;;;;;;;;4362852;32;20520;-67
2022/08/14 10:02:30;;;;;;;3.62;2.60;;;;;;;;;;4362624;32;20093;-68
2022/08/14 10:05:11;;;;;;;2.85;2.55;;;;;;;;;;4350204;32;20065;-68
2022/08/14 10:07:51;;;;;;;4.90;2.37;;;;;;;;;;4350342;32;20149;-68
2022/08/14 10:10:37;;;;;;;3.78;2.60;;;;;;;;;;4351067;32;20104;-68
2022/08/14 10:13:07;;;;;;;3.37;2.25;;;;;;;;;;4376168;32;20093;-68
2022/08/14 10:15:38;;;;;;;3.30;2.55;;;;;;;;;;4363169;32;20088;-68
2022/08/14 10:18:08;;;;;;;4.32;2.70;;;;;;;;;;4362159;32;20100;-68
2022/08/14 10:20:44;;;;;;;7.53;2.42;;;;;;;;;;4362273;32;20073;-68
2022/08/14 10:23:19;;;;;;;4.78;2.83;;;;;;;;;;4351084;32;20078;-68
2022/08/14 10:25:50;;;;;;;;;;;;;;;;;;4365713;32;20132;-67
2022/08/14 10:28:21;;;;;;;4.82;2.65;;;;;;;;;;4353149;32;19965;-68
2022/08/14 10:30:53;;;;;;;4.20;2.40;;;;;;;;;;4365882;32;20084;-67
2022/08/14 10:33:32;;;;;;;4.95;2.37;;;;;;;;;;4353733;32;20093;-68
2022/08/14 10:36:00;;;;;;;2.45;2.05;;;;;;;;;;4378731;32;20149;-68
2022/08/14 10:38:34;;;;;;;4.18;2.50;;;;;;;;;;4364995;32;20523;-67
2022/08/14 10:41:15;;;;;;;2.87;2.15;;;;;;;;;;4365713;32;20074;-67
2022/08/14 10:43:42;;;;;;;2.47;2.20;;;;;;;;;;4365171;32;20097;-67
2022/08/14 10:46:15;;;;;;;5.82;2.15;;;;;;;;;;4365531;32;20531;-67
2022/08/14 10:49:05;;;;;;;2.55;2.30;;;;;;;;;;4364966;32;20074;-67
2022/08/14 10:51:35;;;;;;;2.80;2.37;;;;;;;;;;4341100;32;20169;-67
2022/08/14 10:54:09;;;;;;;3.45;2.35;;;;;;;;;;4353599;32;20057;-67
2022/08/14 10:56:35;;;;;;;3.47;2.30;;;;;;;;;;4380351;32;20070;-68
2022/08/14 10:59:09;;;;;;;3.90;2.28;;;;;;;;;;4367234;32;20102;-67
2022/08/14 11:01:37;;;;;;;5.78;2.50;;;;;;;;;;4355887;32;20108;-68
2022/08/14 11:04:04;;;;;;;4.82;2.60;;;;;;;;;;4379866;32;20093;-68
2022/08/14 11:06:32;;;;;;;2.87;2.17;;;;;;;;;;4340250;32;20441;-68
2022/08/14 11:08:58;;;;;;;2.67;2.15;;;;;;;;;;4352579;32;20085;-67
2022/08/14 11:11:26;;;;;;;5.00;2.40;;;;;;;;;;4352316;32;20075;-68
2022/08/14 11:13:56;;;;;;;2.58;2.20;;;;;;;;;;4364858;32;20066;-67
2022/08/14 11:16:23;;;;;;;4.50;2.35;;;;;;;;;;4352150;32;20086;-68
2022/08/14 11:18:51;;;;;;;3.28;2.05;;;;;;;;;;4352190;32;20207;-68
2022/08/14 11:21:21;;;;;;;2.83;2.03;;;;;;;;;;4352811;32;20146;-68
2022/08/14 11:23:48;;;;;;;3.03;2.30;;;;;;;;;;4352563;32;20089;-68
2022/08/14 11:26:17;;;;;;;3.72;2.10;;;;;;;;;;4364814;32;20073;-67
2022/08/14 11:28:47;;;;;;;4.03;2.20;;;;;;;;;;4352277;32;20078;-68
2022/08/14 11:31:15;;;;;;;2.72;2.22;;;;;;;;;;4352269;32;20071;-67
2022/08/14 11:33:42;;;;;;;4.35;2.20;;;;;;;;;;4352855;32;20456;-67
2022/08/14 11:36:10;;;;;;;5.35;2.78;;;;;;;;;;4365977;32;20519;-67
2022/08/14 11:38:44;;;;;;;4.75;2.00;;;;;;;;;;4378549;32;20108;-68
2022/08/14 11:41:12;;;;;;;5.12;2.35;;;;;;;;;;4352534;32;20101;-67
2022/08/14 11:43:44;;;;;;;3.80;2.20;;;;;;;;;;4353039;32;20080;-67
2022/08/14 11:46:12;;;;;;;4.65;2.35;;;;;;;;;;4341889;32;20094;-68
2022/08/14 11:48:49;;;;;;;4.28;2.67;;;;;;;;;;4352924;32;20500;-68
2022/08/14 11:51:22;;;;;;;3.58;2.12;;;;;;;;;;4378386;32;20142;-68
2022/08/14 11:54:00;;;;;;;3.87;2.20;;;;;;;;;;4352877;32;20082;-68
2022/08/14 11:56:34;;;;;;;3.25;2.17;;;;;;;;;;4364887;32;20078;-67
2022/08/14 11:59:01;;;;;;;2.65;1.87;;;;;;;;;;4351953;32;20238;-67
2022/08/14 12:01:31;;;;;;;4.32;2.40;;;;;;;;;;4363803;32;20087;-68
2022/08/14 12:04:16;;;;;;;2.30;2.10;;;;;;;;;;4352261;32;20073;-66
2022/08/14 12:06:47;;;;;;;2.62;2.03;;;;;;;;;;4352291;32;20085;-68
2022/08/14 12:09:26;;;;;;;2.50;2.03;;;;;;;;;;4363994;32;20067;-68
2022/08/14 12:11:54;;;;;;;2.75;2.08;;;;;;;;;;4364136;32;20078;-68
2022/08/14 12:14:22;;;;;;;2.83;1.83;;;;;;;;;;4352680;32;20569;-67
2022/08/14 12:17:06;;;;;;;2.80;2.33;;;;;;;;;;4351881;32;20089;-68
2022/08/14 12:19:47;;;;;;;6.62;2.28;;;;;;;;;;4377913;32;20165;-67
2022/08/14 12:22:13;;;;;;;7.62;2.67;;;;;;;;;;4363549;32;20078;-67
2022/08/14 12:24:45;;;;;;;3.87;2.10;;;;;;;;;;4364206;32;20507;-67
2022/08/14 12:27:12;;;;;;;4.78;2.10;;;;;;;;;;4351767;32;20089;-67
2022/08/14 12:29:49;;;;;;;2.45;2.05;;;;;;;;;;4351475;32;20093;-67
2022/08/14 12:32:16;;;;;;;2.20;2.00;;;;;;;;;;4351282;32;20153;-66
2022/08/14 12:34:42;;;;;;;3.55;2.33;;;;;;;;;;4350987;32;20080;-68
2022/08/14 12:37:09;;;;;;;3.20;2.10;;;;;;;;;;4363651;32;20097;-68
2022/08/14 12:39:36;;;;;;;2.17;1.98;;;;;;;;;;4377474;32;20166;-68
2022/08/14 12:42:06;;;;;;;3.50;2.42;;;;;;;;;;4350869;32;20460;-68
2022/08/14 12:44:38;;;;;;;3.62;2.30;;;;;;;;;;4377654;32;20153;-68
2022/08/14 12:47:09;;;;;;;6.00;2.10;;;;;;;;;;4363790;32;20492;-67
2022/08/14 12:49:36;;;;;;;4.95;2.00;;;;;;;;;;4348714;32;20513;-66
2022/08/14 12:52:06;;;;;;;4.68;2.20;;;;;;;;;;4361553;32;20109;-67
2022/08/14 12:54:33;;;;;;;4.55;2.15;;;;;;;;;;4361066;32;20461;-68
2022/08/14 12:57:10;;;;;;;2.37;2.15;;;;;;;;;;4362636;32;20520;-67
2022/08/14 12:59:37;;;;;;;3.97;2.10;;;;;;;;;;4336304;32;20155;-67
2022/08/14 13:02:04;;;;;;;2.67;1.95;;;;;;;;;;4348927;32;20081;-69
2022/08/14 13:04:31;;;;;;;3.40;1.90;;;;;;;;;;4360938;32;20074;-68
2022/08/14 13:07:07;;;;;;;3.62;2.03;;;;;;;;;;4360699;32;20093;-68
2022/08/14 13:09:34;;;;;;;2.55;2.00;;;;;;;;;;4349431;32;20086;-68
2022/08/14 13:12:04;;;;;;;2.42;1.92;;;;;;;;;;4336038;32;20086;-68
2022/08/14 13:14:32;;;;;;;2.37;1.80;;;;;;;;;;4360351;32;20156;-68
2022/08/14 13:17:02;;;;;;;4.28;1.95;;;;;;;;;;4348573;32;20073;-68
2022/08/14 13:19:29;;;;;;;6.15;2.58;;;;;;;;;;4361262;32;20101;-68
2022/08/14 13:21:56;;;;;;;2.45;2.20;;;;;;;;;;4361746;32;20171;-67
2022/08/14 13:24:24;;;;;;;3.60;2.55;;;;;;;;;;4360209;32;20078;-68
2022/08/14 13:26:59;;;;;;;4.15;2.28;;;;;;;;;;4335687;32;20093;-68
2022/08/14 13:29:27;;;;;;;3.22;2.00;;;;;;;;;;4348765;32;20507;-67
2022/08/14 13:31:56;;;;;;;4.82;2.08;;;;;;;;;;4360298;32;20472;-68
2022/08/14 13:34:25;;;;;;;4.85;2.17;;;;;;;;;;4347955;32;20075;-67
2022/08/14 13:36:53;;;;;;;2.92;2.00;;;;;;;;;;4347809;32;20083;-67
2022/08/14 13:39:21;;;;;;;2.30;2.08;;;;;;;;;;4361628;32;20169;-69
2022/08/14 13:41:48;;;;;;;3.47;2.10;;;;;;;;;;4348167;32;20105;-68
2022/08/14 13:44:17;;;;;;;3.37;2.40;;;;;;;;;;4361738;32;20070;-68
2022/08/14 13:46:44;;;;;;;2.72;2.05;;;;;;;;;;4360165;32;20066;-66
2022/08/14 13:49:12;;;;;;;2.50;2.00;;;;;;;;;;4360524;32;20164;-69
2022/08/14 13:51:45;;;;;;;3.47;2.10;;;;;;;;;;4351279;32;20174;-68
2022/08/14 13:54:19;;;;;;;2.10;1.85;;;;;;;;;;4356026;32;20062;-67
2022/08/14 13:56:47;;;;;;;6.62;2.17;;;;;;;;;;4354584;32;20078;-68
2022/08/14 13:59:14;;;;;;;6.45;2.30;;;;;;;;;;4354273;32;20492;-69
2022/08/14 14:01:44;;;;;;;4.28;2.20;;;;;;;;;;4351209;32;20071;-68
2022/08/14 14:04:17;;;;;;;4.43;1.80;;;;;;;;;;4362912;32;20139;-69
2022/08/14 14:06:47;;;;;;;2.70;1.90;;;;;;;;;;4362518;32;20083;-67
2022/08/14 14:09:15;;;;;;;4.22;2.40;;;;;;;;;;4350029;32;20570;-68
2022/08/14 14:11:43;;;;;;;3.20;1.90;;;;;;;;;;4349993;32;20144;-67
2022/08/14 14:14:10;;;;;;;3.00;2.08;;;;;;;;;;4376404;32;20074;-67
2022/08/14 14:16:39;;;;;;;4.25;2.37;;;;;;;;;;4350213;32;20089;-68
2022/08/14 14:19:06;;;;;;;3.03;2.05;;;;;;;;;;4364599;32;20081;-67
2022/08/14 14:21:33;;;;;;;2.80;2.20;;;;;;;;;;4350092;32;20070;-68
2022/08/14 14:24:00;;;;;;;2.92;2.08;;;;;;;;;;4362590;32;20074;-68
2022/08/14 14:26:28;;;;;;;5.57;2.00;;;;;;;;;;4350017;32;20106;-68
2022/08/14 14:28:55;;;;;;;3.03;2.12;;;;;;;;;;4362109;32;20100;-67
2022/08/14 14:31:27;;;;;;;6.28;2.30;;;;;;;;;;4362333;32;20097;-68
2022/08/14 14:33:59;;;;;;;5.97;2.45;;;;;;;;;;4376016;32;20062;-67
2022/08/14 14:36:28;;;;;;;3.30;2.22;;;;;;;;;;4337821;32;20078;-67
2022/08/14 14:39:03;;;;;;;4.57;2.20;;;;;;;;;;4362052;32;20097;-68
2022/08/14 14:41:33;;;;;;;7.05;2.50;;;;;;;;;;4362254;32;20105;-68
2022/08/14 14:44:00;;;;;;;6.40;2.33;;;;;;;;;;4350034;32;20086;-68
2022/08/14 14:46:34;;;;;;;4.20;1.90;;;;;;;;;;4362618;32;20147;-68
2022/08/14 14:49:05;;;;;;;3.58;2.30;;;;;;;;;;4362483;32;20510;-67
2022/08/14 14:51:32;;;;;;;5.93;2.30;;;;;;;;;;4361970;32;20175;-68
2022/08/14 14:54:00;;;;;;;3.58;2.10;;;;;;;;;;4337291;32;20078;-67
2022/08/14 14:56:30;;;;;;;4.32;2.10;;;;;;;;;;4361919;32;20519;-68
2022/08/14 14:58:57;;;;;;;6.00;2.53;;;;;;;;;;4349956;32;20172;-68
2022/08/14 15:01:24;;;;;;;4.22;2.35;;;;;;;;;;4349514;32;20517;-68
2022/08/14 15:03:53;;;;;;;5.55;2.62;;;;;;;;;;4349853;32;20102;-67
2022/08/14 15:06:21;;;;;;;4.07;2.50;;;;;;;;;;4349815;32;20089;-68
2022/08/14 15:08:48;;;;;;;7.07;2.47;;;;;;;;;;4349451;32;20078;-68
2022/08/14 15:11:15;;;;;;;7.60;2.40;;;;;;;;;;4363887;32;20170;-66
2022/08/14 15:13:42;;;;;;;5.15;2.87;;;;;;;;;;4364598;32;20153;-67